sensor_id;sensor_type;location;lat;lon;timestamp;pressure;altitude;pressure_sealevel;temperature;humidity
50105;BME280;47690;39.202;-77.198;2023-06-04T00:01:06;99844.44;;;56.65;7.83
50105;BME280;47690;39.202;-77.198;2023-06-04T00:03:47;99879.47;;;56.02;7.79
50105;BME280;47690;39.202;-77.198;2023-06-04T00:06:22;99881.66;;;54.33;8.68
50105;BME280;47690;39.202;-77.198;2023-06-04T00:08:59;99884.47;;;54.07;8.93
50105;BME280;47690;39.202;-77.198;2023-06-04T00:11:35;99916.59;;;53.85;8.87
50105;BME280;47690;39.202;-77.198;2023-06-04T00:14:38;99921.75;;;54.04;9.46
50105;BME280;47690;39.202;-77.198;2023-06-04T00:18:25;99920.72;;;54.36;9.34
50105;BME280;47690;39.202;-77.198;2023-06-04T00:21:09;99928.72;;;53.58;9.13
50105;BME280;47690;39.202;-77.198;2023-06-04T00:24:38;99928.75;;;53.17;9.49
50105;BME280;47690;39.202;-77.198;2023-06-04T00:27:23;99939.94;;;53.12;9.91
50105;BME280;47690;39.202;-77.198;2023-06-04T00:30:07;99950.66;;;52.91;10.13
50105;BME280;47690;39.202;-77.198;2023-06-04T00:33:01;99948.94;;;52.72;9.92
50105;BME280;47690;39.202;-77.198;2023-06-04T00:35:34;99962.91;;;52.53;9.94
50105;BME280;47690;39.202;-77.198;2023-06-04T00:38:07;99971.47;;;52.51;10.10
50105;BME280;47690;39.202;-77.198;2023-06-04T00:40:59;99949.66;;;53.27;9.74
50105;BME280;47690;39.202;-77.198;2023-06-04T00:43:38;99940.53;;;53.85;8.63
50105;BME280;47690;39.202;-77.198;2023-06-04T00:46:10;99945.38;;;53.52;9.15
50105;BME280;47690;39.202;-77.198;2023-06-04T00:49:07;99944.81;;;52.83;9.50
50105;BME280;47690;39.202;-77.198;2023-06-04T00:52:02;99930.47;;;52.41;9.47
50105;BME280;47690;39.202;-77.198;2023-06-04T00:54:37;99958.75;;;51.96;9.98
50105;BME280;47690;39.202;-77.198;2023-06-04T00:57:09;99963.97;;;53.56;9.13
50105;BME280;47690;39.202;-77.198;2023-06-04T00:59:43;99957.28;;;52.58;9.70
50105;BME280;47690;39.202;-77.198;2023-06-04T01:02:30;99969.72;;;51.96;9.66
50105;BME280;47690;39.202;-77.198;2023-06-04T01:05:32;99981.56;;;52.19;9.79
50105;BME280;47690;39.202;-77.198;2023-06-04T01:08:29;99982.88;;;51.85;10.20
50105;BME280;47690;39.202;-77.198;2023-06-04T01:11:06;100006.28;;;51.54;10.17
50105;BME280;47690;39.202;-77.198;2023-06-04T01:13:49;99998.66;;;51.23;9.96
50105;BME280;47690;39.202;-77.198;2023-06-04T01:20:22;99984.53;;;51.72;10.00
50105;BME280;47690;39.202;-77.198;2023-06-04T01:23:30;99986.88;;;51.50;10.19
50105;BME280;47690;39.202;-77.198;2023-06-04T01:26:10;99996.84;;;50.52;9.81
50105;BME280;47690;39.202;-77.198;2023-06-04T01:28:58;100003.19;;;49.16;11.21
50105;BME280;47690;39.202;-77.198;2023-06-04T01:31:32;100009.84;;;49.34;11.20
50105;BME280;47690;39.202;-77.198;2023-06-04T01:34:07;100013.00;;;48.48;11.41
50105;BME280;47690;39.202;-77.198;2023-06-04T01:36:58;100009.22;;;48.78;11.38
50105;BME280;47690;39.202;-77.198;2023-06-04T01:39:31;100022.09;;;48.38;11.51
50105;BME280;47690;39.202;-77.198;2023-06-04T01:42:03;100046.25;;;48.10;11.45
50105;BME280;47690;39.202;-77.198;2023-06-04T01:44:38;100052.72;;;48.30;11.22
50105;BME280;47690;39.202;-77.198;2023-06-04T01:47:11;100050.84;;;49.05;11.19
50105;BME280;47690;39.202;-77.198;2023-06-04T01:49:55;100045.94;;;49.07;11.01
50105;BME280;47690;39.202;-77.198;2023-06-04T01:52:27;100052.91;;;48.84;10.42
50105;BME280;47690;39.202;-77.198;2023-06-04T01:55:11;100067.38;;;47.83;11.30
50105;BME280;47690;39.202;-77.198;2023-06-04T01:57:55;100081.81;;;47.89;11.44
50105;BME280;47690;39.202;-77.198;2023-06-04T02:00:31;100091.94;;;47.78;11.15
50105;BME280;47690;39.202;-77.198;2023-06-04T02:03:11;100097.56;;;48.68;11.36
50105;BME280;47690;39.202;-77.198;2023-06-04T02:05:55;100106.06;;;48.01;11.30
50105;BME280;47690;39.202;-77.198;2023-06-04T02:08:30;100107.22;;;47.84;11.36
50105;BME280;47690;39.202;-77.198;2023-06-04T02:11:04;100118.28;;;49.15;10.87
50105;BME280;47690;39.202;-77.198;2023-06-04T02:13:47;100143.47;;;47.95;11.00
50105;BME280;47690;39.202;-77.198;2023-06-04T02:16:22;100134.53;;;47.53;11.30
50105;BME280;47690;39.202;-77.198;2023-06-04T02:18:54;100145.16;;;47.29;11.44
50105;BME280;47690;39.202;-77.198;2023-06-04T02:21:27;100152.78;;;47.22;11.64
50105;BME280;47690;39.202;-77.198;2023-06-04T02:24:01;100156.88;;;47.50;11.12
50105;BME280;47690;39.202;-77.198;2023-06-04T02:26:54;100141.91;;;47.53;11.48
50105;BME280;47690;39.202;-77.198;2023-06-04T02:29:31;100160.69;;;47.91;10.84
50105;BME280;47690;39.202;-77.198;2023-06-04T02:32:11;100142.41;;;50.45;9.67
50105;BME280;47690;39.202;-77.198;2023-06-04T02:34:51;100160.97;;;50.29;9.63
50105;BME280;47690;39.202;-77.198;2023-06-04T02:37:22;100171.97;;;50.24;8.98
50105;BME280;47690;39.202;-77.198;2023-06-04T02:39:54;100160.78;;;50.64;9.01
50105;BME280;47690;39.202;-77.198;2023-06-04T02:42:26;100160.47;;;51.70;8.65
50105;BME280;47690;39.202;-77.198;2023-06-04T02:44:58;100166.84;;;52.13;8.38
50105;BME280;47690;39.202;-77.198;2023-06-04T02:47:31;100174.44;;;51.07;8.36
50105;BME280;47690;39.202;-77.198;2023-06-04T02:50:01;100184.91;;;50.18;8.97
50105;BME280;47690;39.202;-77.198;2023-06-04T02:52:34;100183.19;;;49.73;9.55
50105;BME280;47690;39.202;-77.198;2023-06-04T02:55:22;100183.59;;;49.56;9.72
50105;BME280;47690;39.202;-77.198;2023-06-04T02:58:03;100173.03;;;49.10;9.77
50105;BME280;47690;39.202;-77.198;2023-06-04T03:00:55;100177.81;;;48.88;10.54
50105;BME280;47690;39.202;-77.198;2023-06-04T03:03:27;100182.41;;;48.98;10.32
50105;BME280;47690;39.202;-77.198;2023-06-04T03:06:30;100185.06;;;48.58;9.83
50105;BME280;47690;39.202;-77.198;2023-06-04T03:09:06;100188.13;;;48.51;10.26
50105;BME280;47690;39.202;-77.198;2023-06-04T03:12:57;100186.56;;;48.85;10.28
50105;BME280;47690;39.202;-77.198;2023-06-04T03:16:07;100191.91;;;48.56;9.70
50105;BME280;47690;39.202;-77.198;2023-06-04T03:19:05;100186.41;;;48.61;10.42
50105;BME280;47690;39.202;-77.198;2023-06-04T03:22:23;100188.63;;;48.48;10.17
50105;BME280;47690;39.202;-77.198;2023-06-04T03:25:21;100202.66;;;48.16;10.14
50105;BME280;47690;39.202;-77.198;2023-06-04T03:28:28;100206.06;;;48.63;9.92
50105;BME280;47690;39.202;-77.198;2023-06-04T03:31:37;100210.41;;;48.74;10.25
50105;BME280;47690;39.202;-77.198;2023-06-04T03:35:35;100215.69;;;48.55;10.50
50105;BME280;47690;39.202;-77.198;2023-06-04T03:38:23;100221.53;;;48.02;10.71
50105;BME280;47690;39.202;-77.198;2023-06-04T03:41:07;100219.91;;;47.69;10.68
50105;BME280;47690;39.202;-77.198;2023-06-04T03:44:03;100221.81;;;47.43;11.02
50105;BME280;47690;39.202;-77.198;2023-06-04T03:47:35;100218.97;;;48.42;10.51
50105;BME280;47690;39.202;-77.198;2023-06-04T03:50:28;100226.63;;;49.05;10.05
50105;BME280;47690;39.202;-77.198;2023-06-04T03:53:38;100214.25;;;48.68;9.92
50105;BME280;47690;39.202;-77.198;2023-06-04T03:56:11;100213.84;;;48.30;10.34
50105;BME280;47690;39.202;-77.198;2023-06-04T03:59:19;100206.66;;;49.45;9.89
50105;BME280;47690;39.202;-77.198;2023-06-04T04:02:07;100214.88;;;49.05;9.63
50105;BME280;47690;39.202;-77.198;2023-06-04T04:05:11;100216.13;;;48.78;10.03
50105;BME280;47690;39.202;-77.198;2023-06-04T04:08:02;100219.63;;;48.18;10.06
50105;BME280;47690;39.202;-77.198;2023-06-04T04:10:55;100218.25;;;47.99;10.66
50105;BME280;47690;39.202;-77.198;2023-06-04T04:13:30;100216.47;;;48.61;10.20
50105;BME280;47690;39.202;-77.198;2023-06-04T04:16:02;100218.53;;;48.90;9.90
50105;BME280;47690;39.202;-77.198;2023-06-04T04:18:53;100219.09;;;48.81;9.74
50105;BME280;47690;39.202;-77.198;2023-06-04T04:21:36;100222.16;;;50.43;8.51
50105;BME280;47690;39.202;-77.198;2023-06-04T04:24:38;100234.00;;;47.09;10.98
50105;BME280;47690;39.202;-77.198;2023-06-04T04:27:58;100220.91;;;49.02;9.53
50105;BME280;47690;39.202;-77.198;2023-06-04T04:30:42;100226.16;;;50.27;9.27
50105;BME280;47690;39.202;-77.198;2023-06-04T04:33:37;100218.94;;;49.82;9.17
50105;BME280;47690;39.202;-77.198;2023-06-04T04:36:34;100215.94;;;49.49;9.31
50105;BME280;47690;39.202;-77.198;2023-06-04T04:39:31;100213.16;;;48.64;9.96
50105;BME280;47690;39.202;-77.198;2023-06-04T04:42:27;100211.16;;;48.14;9.74
50105;BME280;47690;39.202;-77.198;2023-06-04T04:45:22;100189.91;;;49.86;8.66
50105;BME280;47690;39.202;-77.198;2023-06-04T04:48:03;100205.13;;;48.83;10.01
50105;BME280;47690;39.202;-77.198;2023-06-04T04:50:48;100212.00;;;48.80;9.22
50105;BME280;47690;39.202;-77.198;2023-06-04T04:53:31;100210.75;;;49.07;9.30
50105;BME280;47690;39.202;-77.198;2023-06-04T04:56:35;100211.72;;;50.21;8.81
50105;BME280;47690;39.202;-77.198;2023-06-04T05:01:02;100216.94;;;51.24;8.20
50105;BME280;47690;39.202;-77.198;2023-06-04T05:03:34;100217.63;;;50.34;8.36
50105;BME280;47690;39.202;-77.198;2023-06-04T05:06:22;100225.94;;;48.79;9.58
50105;BME280;47690;39.202;-77.198;2023-06-04T05:09:37;100228.41;;;49.66;8.99
50105;BME280;47690;39.202;-77.198;2023-06-04T05:12:56;100222.03;;;46.03;11.05
50105;BME280;47690;39.202;-77.198;2023-06-04T05:16:16;100216.91;;;45.41;12.03
50105;BME280;47690;39.202;-77.198;2023-06-04T05:20:19;100218.22;;;48.10;9.53
50105;BME280;47690;39.202;-77.198;2023-06-04T05:24:05;100218.50;;;53.58;6.59
50105;BME280;47690;39.202;-77.198;2023-06-04T05:28:27;100218.97;;;48.47;10.08
50105;BME280;47690;39.202;-77.198;2023-06-04T05:31:26;100217.69;;;48.13;9.79
50105;BME280;47690;39.202;-77.198;2023-06-04T05:34:03;100206.22;;;48.21;9.97
50105;BME280;47690;39.202;-77.198;2023-06-04T05:36:59;100214.31;;;48.47;9.70
50105;BME280;47690;39.202;-77.198;2023-06-04T05:39:46;100214.88;;;48.44;9.72
50105;BME280;47690;39.202;-77.198;2023-06-04T05:42:23;100213.06;;;48.13;9.74
50105;BME280;47690;39.202;-77.198;2023-06-04T05:45:52;100210.81;;;48.36;9.99
50105;BME280;47690;39.202;-77.198;2023-06-04T05:48:57;100210.34;;;47.93;9.99
50105;BME280;47690;39.202;-77.198;2023-06-04T05:51:31;100198.38;;;50.14;9.30
50105;BME280;47690;39.202;-77.198;2023-06-04T05:54:26;100205.38;;;48.97;10.05
50105;BME280;47690;39.202;-77.198;2023-06-04T05:57:35;100207.69;;;48.64;10.37
50105;BME280;47690;39.202;-77.198;2023-06-04T06:00:26;100194.34;;;48.57;10.14
50105;BME280;47690;39.202;-77.198;2023-06-04T06:03:10;100195.47;;;48.51;10.06
50105;BME280;47690;39.202;-77.198;2023-06-04T06:06:10;100188.63;;;48.59;10.19
50105;BME280;47690;39.202;-77.198;2023-06-04T06:09:43;100179.00;;;47.49;10.17
50105;BME280;47690;39.202;-77.198;2023-06-04T06:12:35;100181.72;;;47.33;10.79
50105;BME280;47690;39.202;-77.198;2023-06-04T06:15:27;100184.41;;;47.28;10.68
50105;BME280;47690;39.202;-77.198;2023-06-04T06:18:26;100186.88;;;47.14;10.47
50105;BME280;47690;39.202;-77.198;2023-06-04T06:21:07;100192.03;;;47.05;10.76
50105;BME280;47690;39.202;-77.198;2023-06-04T06:23:58;100192.78;;;46.90;10.39
50105;BME280;47690;39.202;-77.198;2023-06-04T06:26:36;100190.81;;;46.70;10.50
50105;BME280;47690;39.202;-77.198;2023-06-04T06:29:31;100196.59;;;46.89;10.57
50105;BME280;47690;39.202;-77.198;2023-06-04T06:32:05;100197.38;;;46.79;10.32
50105;BME280;47690;39.202;-77.198;2023-06-04T06:34:38;100194.38;;;46.70;11.00
50105;BME280;47690;39.202;-77.198;2023-06-04T06:37:21;100192.91;;;46.47;11.05
50105;BME280;47690;39.202;-77.198;2023-06-04T06:39:53;100189.72;;;46.12;11.42
50105;BME280;47690;39.202;-77.198;2023-06-04T06:42:33;100194.59;;;46.58;11.08
50105;BME280;47690;39.202;-77.198;2023-06-04T06:45:05;100194.50;;;46.43;10.72
50105;BME280;47690;39.202;-77.198;2023-06-04T06:47:54;100196.06;;;46.87;10.57
50105;BME280;47690;39.202;-77.198;2023-06-04T06:50:27;100198.47;;;46.68;10.63
50105;BME280;47690;39.202;-77.198;2023-06-04T06:53:09;100186.66;;;46.57;11.06
50105;BME280;47690;39.202;-77.198;2023-06-04T06:55:51;100193.66;;;47.01;10.54
50105;BME280;47690;39.202;-77.198;2023-06-04T06:58:26;100196.53;;;46.63;10.92
50105;BME280;47690;39.202;-77.198;2023-06-04T07:01:09;100198.75;;;46.71;10.93
50105;BME280;47690;39.202;-77.198;2023-06-04T07:03:55;100200.47;;;47.03;10.73
50105;BME280;47690;39.202;-77.198;2023-06-04T07:06:32;100200.41;;;46.88;10.38
50105;BME280;47690;39.202;-77.198;2023-06-04T07:09:06;100190.84;;;46.75;11.00
50105;BME280;47690;39.202;-77.198;2023-06-04T07:11:50;100188.75;;;46.39;11.12
50105;BME280;47690;39.202;-77.198;2023-06-04T07:14:42;100191.22;;;45.60;10.94
50105;BME280;47690;39.202;-77.198;2023-06-04T07:18:02;100198.09;;;46.48;10.70
50105;BME280;47690;39.202;-77.198;2023-06-04T07:21:16;100195.34;;;46.48;11.12
50105;BME280;47690;39.202;-77.198;2023-06-04T07:24:39;100214.69;;;46.47;10.96
50105;BME280;47690;39.202;-77.198;2023-06-04T07:28:02;100205.06;;;46.92;10.80
50105;BME280;47690;39.202;-77.198;2023-06-04T07:30:42;100211.25;;;46.19;11.22
50105;BME280;47690;39.202;-77.198;2023-06-04T07:34:14;100197.22;;;46.43;11.01
50105;BME280;47690;39.202;-77.198;2023-06-04T07:37:35;100204.94;;;46.13;11.17
50105;BME280;47690;39.202;-77.198;2023-06-04T07:40:26;100198.41;;;46.14;10.45
50105;BME280;47690;39.202;-77.198;2023-06-04T07:43:21;100191.97;;;46.95;10.68
50105;BME280;47690;39.202;-77.198;2023-06-04T07:46:31;100197.25;;;46.48;10.89
50105;BME280;47690;39.202;-77.198;2023-06-04T07:49:10;100199.88;;;46.27;10.94
50105;BME280;47690;39.202;-77.198;2023-06-04T07:51:53;100203.53;;;46.00;10.61
50105;BME280;47690;39.202;-77.198;2023-06-04T07:54:30;100194.78;;;45.98;11.20
50105;BME280;47690;39.202;-77.198;2023-06-04T07:57:07;100198.38;;;45.71;10.80
50105;BME280;47690;39.202;-77.198;2023-06-04T07:59:47;100190.06;;;45.83;10.65
50105;BME280;47690;39.202;-77.198;2023-06-04T08:02:21;100182.75;;;45.89;10.79
50105;BME280;47690;39.202;-77.198;2023-06-04T08:04:55;100194.88;;;45.76;10.94
50105;BME280;47690;39.202;-77.198;2023-06-04T08:07:27;100196.72;;;47.62;9.66
50105;BME280;47690;39.202;-77.198;2023-06-04T08:09:59;100202.88;;;46.95;10.25
50105;BME280;47690;39.202;-77.198;2023-06-04T08:12:34;100202.34;;;46.29;10.70
50105;BME280;47690;39.202;-77.198;2023-06-04T08:15:11;100197.59;;;45.76;11.17
50105;BME280;47690;39.202;-77.198;2023-06-04T08:18:26;100200.06;;;46.15;10.71
50105;BME280;47690;39.202;-77.198;2023-06-04T08:21:36;100210.47;;;46.23;10.20
50105;BME280;47690;39.202;-77.198;2023-06-04T08:24:44;100208.03;;;46.27;10.71
50105;BME280;47690;39.202;-77.198;2023-06-04T08:28:27;100214.97;;;47.19;10.31
50105;BME280;47690;39.202;-77.198;2023-06-04T08:31:57;100211.63;;;47.02;10.10
50105;BME280;47690;39.202;-77.198;2023-06-04T08:34:55;100223.84;;;46.89;10.13
50105;BME280;47690;39.202;-77.198;2023-06-04T08:38:09;100216.63;;;46.57;10.52
50105;BME280;47690;39.202;-77.198;2023-06-04T08:41:05;100215.19;;;46.38;10.25
50105;BME280;47690;39.202;-77.198;2023-06-04T08:44:11;100206.38;;;46.80;10.37
50105;BME280;47690;39.202;-77.198;2023-06-04T08:47:13;100194.75;;;46.36;10.20
50105;BME280;47690;39.202;-77.198;2023-06-04T08:50:06;100203.34;;;46.60;10.22
50105;BME280;47690;39.202;-77.198;2023-06-04T08:52:55;100210.03;;;47.22;9.88
50105;BME280;47690;39.202;-77.198;2023-06-04T08:55:34;100200.22;;;47.10;9.91
50105;BME280;47690;39.202;-77.198;2023-06-04T08:58:18;100194.13;;;45.80;10.51
50105;BME280;47690;39.202;-77.198;2023-06-04T09:00:50;100199.00;;;45.78;11.27
50105;BME280;47690;39.202;-77.198;2023-06-04T09:04:10;100186.06;;;47.29;9.90
50105;BME280;47690;39.202;-77.198;2023-06-04T09:07:39;100182.25;;;47.35;10.01
50105;BME280;47690;39.202;-77.198;2023-06-04T09:10:58;100185.31;;;46.06;10.89
50105;BME280;47690;39.202;-77.198;2023-06-04T09:13:36;100190.81;;;45.78;11.07
50105;BME280;47690;39.202;-77.198;2023-06-04T09:16:57;100200.09;;;46.79;10.27
50105;BME280;47690;39.202;-77.198;2023-06-04T09:20:38;100194.59;;;46.58;10.19
50105;BME280;47690;39.202;-77.198;2023-06-04T09:23:31;100194.78;;;45.93;10.73
50105;BME280;47690;39.202;-77.198;2023-06-04T09:26:10;100205.16;;;46.01;10.56
50105;BME280;47690;39.202;-77.198;2023-06-04T09:28:55;100215.81;;;46.51;10.70
50105;BME280;47690;39.202;-77.198;2023-06-04T09:31:30;100224.91;;;46.24;10.83
50105;BME280;47690;39.202;-77.198;2023-06-04T09:34:29;100221.78;;;46.10;10.53
50105;BME280;47690;39.202;-77.198;2023-06-04T09:37:26;100219.50;;;46.34;10.27
50105;BME280;47690;39.202;-77.198;2023-06-04T09:40:04;100216.50;;;46.26;10.49
50105;BME280;47690;39.202;-77.198;2023-06-04T09:42:51;100208.81;;;46.71;10.47
50105;BME280;47690;39.202;-77.198;2023-06-04T09:45:35;100216.19;;;46.70;10.45
50105;BME280;47690;39.202;-77.198;2023-06-04T09:48:39;100224.44;;;46.43;10.37
50105;BME280;47690;39.202;-77.198;2023-06-04T09:51:57;100229.94;;;46.05;10.65
50105;BME280;47690;39.202;-77.198;2023-06-04T09:54:39;100237.97;;;46.27;10.57
50105;BME280;47690;39.202;-77.198;2023-06-04T09:57:21;100238.81;;;46.76;10.12
50105;BME280;47690;39.202;-77.198;2023-06-04T10:00:06;100242.56;;;46.64;10.33
50105;BME280;47690;39.202;-77.198;2023-06-04T10:03:14;100239.97;;;46.42;10.30
50105;BME280;47690;39.202;-77.198;2023-06-04T10:06:06;100242.72;;;46.04;10.84
50105;BME280;47690;39.202;-77.198;2023-06-04T10:08:39;100250.28;;;45.37;11.31
50105;BME280;47690;39.202;-77.198;2023-06-04T10:11:25;100249.34;;;46.62;10.19
50105;BME280;47690;39.202;-77.198;2023-06-04T10:14:10;100250.63;;;48.63;9.07
50105;BME280;47690;39.202;-77.198;2023-06-04T10:17:11;100252.06;;;47.46;9.78
50105;BME280;47690;39.202;-77.198;2023-06-04T10:19:59;100251.44;;;46.98;10.25
50105;BME280;47690;39.202;-77.198;2023-06-04T10:22:55;100255.22;;;46.97;10.16
50105;BME280;47690;39.202;-77.198;2023-06-04T10:25:30;100250.78;;;46.80;10.43
50105;BME280;47690;39.202;-77.198;2023-06-04T10:28:18;100258.66;;;46.76;10.12
50105;BME280;47690;39.202;-77.198;2023-06-04T10:30:51;100262.78;;;46.74;10.52
50105;BME280;47690;39.202;-77.198;2023-06-04T10:33:27;100257.59;;;46.83;10.12
50105;BME280;47690;39.202;-77.198;2023-06-04T10:36:57;100252.00;;;47.15;9.91
50105;BME280;47690;39.202;-77.198;2023-06-04T10:40:02;100252.31;;;47.24;9.98
50105;BME280;47690;39.202;-77.198;2023-06-04T10:43:15;100257.50;;;47.31;10.03
50105;BME280;47690;39.202;-77.198;2023-06-04T10:46:56;100263.97;;;47.09;10.03
50105;BME280;47690;39.202;-77.198;2023-06-04T10:49:31;100253.53;;;46.85;10.34
50105;BME280;47690;39.202;-77.198;2023-06-04T10:52:23;100249.56;;;47.14;9.97
50105;BME280;47690;39.202;-77.198;2023-06-04T10:55:11;100250.38;;;47.04;10.30
50105;BME280;47690;39.202;-77.198;2023-06-04T10:58:01;100252.00;;;47.05;10.17
50105;BME280;47690;39.202;-77.198;2023-06-04T11:03:41;100252.59;;;47.17;10.01
50105;BME280;47690;39.202;-77.198;2023-06-04T11:06:30;100260.19;;;47.10;9.63
50105;BME280;47690;39.202;-77.198;2023-06-04T11:09:15;100260.47;;;46.55;10.31
50105;BME280;47690;39.202;-77.198;2023-06-04T11:12:01;100265.63;;;46.51;10.53
50105;BME280;47690;39.202;-77.198;2023-06-04T11:14:34;100263.25;;;46.60;10.22
50105;BME280;47690;39.202;-77.198;2023-06-04T11:17:30;100266.00;;;46.71;9.95
50105;BME280;47690;39.202;-77.198;2023-06-04T11:20:26;100272.91;;;46.94;9.85
50105;BME280;47690;39.202;-77.198;2023-06-04T11:23:34;100281.06;;;46.89;9.63
50105;BME280;47690;39.202;-77.198;2023-06-04T11:26:07;100277.31;;;46.09;10.30
50105;BME280;47690;39.202;-77.198;2023-06-04T11:29:34;100278.53;;;46.23;10.28
50105;BME280;47690;39.202;-77.198;2023-06-04T11:32:43;100275.72;;;46.13;10.29
50105;BME280;47690;39.202;-77.198;2023-06-04T11:35:30;100287.19;;;45.82;10.57
50105;BME280;47690;39.202;-77.198;2023-06-04T11:38:25;100301.38;;;44.90;11.31
50105;BME280;47690;39.202;-77.198;2023-06-04T11:40:59;100302.31;;;45.23;11.14
50105;BME280;47690;39.202;-77.198;2023-06-04T11:44:09;100299.38;;;45.80;10.89
50105;BME280;47690;39.202;-77.198;2023-06-04T11:47:01;100299.28;;;45.69;10.64
50105;BME280;47690;39.202;-77.198;2023-06-04T11:49:46;100304.66;;;45.92;10.18
50105;BME280;47690;39.202;-77.198;2023-06-04T11:52:33;100300.84;;;45.88;10.61
50105;BME280;47690;39.202;-77.198;2023-06-04T11:55:32;100304.50;;;46.04;10.00
50105;BME280;47690;39.202;-77.198;2023-06-04T11:58:57;100293.16;;;46.17;9.95
50105;BME280;47690;39.202;-77.198;2023-06-04T12:01:28;100305.06;;;46.06;10.31
50105;BME280;47690;39.202;-77.198;2023-06-04T12:04:22;100303.03;;;46.23;10.71
50105;BME280;47690;39.202;-77.198;2023-06-04T12:07:32;100305.09;;;44.84;11.28
50105;BME280;47690;39.202;-77.198;2023-06-04T12:10:07;100303.88;;;45.69;10.29
50105;BME280;47690;39.202;-77.198;2023-06-04T12:12:54;100298.59;;;46.55;9.90
50105;BME280;47690;39.202;-77.198;2023-06-04T12:15:33;100290.88;;;45.21;11.08
50105;BME280;47690;39.202;-77.198;2023-06-04T12:18:34;100294.38;;;45.16;10.53
50105;BME280;47690;39.202;-77.198;2023-06-04T12:21:23;100297.81;;;45.56;10.51
50105;BME280;47690;39.202;-77.198;2023-06-04T12:24:58;100307.31;;;45.81;10.80
50105;BME280;47690;39.202;-77.198;2023-06-04T12:28:02;100308.47;;;45.91;11.00
50105;BME280;47690;39.202;-77.198;2023-06-04T12:30:57;100308.56;;;47.72;9.73
50105;BME280;47690;39.202;-77.198;2023-06-04T12:33:54;100308.28;;;46.78;9.75
50105;BME280;47690;39.202;-77.198;2023-06-04T12:36:31;100311.34;;;46.11;10.33
50105;BME280;47690;39.202;-77.198;2023-06-04T12:39:07;100315.91;;;46.01;10.65
50105;BME280;47690;39.202;-77.198;2023-06-04T12:41:50;100321.81;;;45.92;10.91
50105;BME280;47690;39.202;-77.198;2023-06-04T12:44:42;100313.13;;;46.28;10.68
50105;BME280;47690;39.202;-77.198;2023-06-04T12:48:03;100319.28;;;46.56;10.06
50105;BME280;47690;39.202;-77.198;2023-06-04T12:51:50;100315.16;;;46.10;10.51
50105;BME280;47690;39.202;-77.198;2023-06-04T12:55:19;100308.59;;;46.06;10.40
50105;BME280;47690;39.202;-77.198;2023-06-04T12:58:06;100306.16;;;45.77;10.51
50105;BME280;47690;39.202;-77.198;2023-06-04T13:00:49;100308.75;;;46.22;10.63
50105;BME280;47690;39.202;-77.198;2023-06-04T13:03:29;100305.66;;;46.13;10.46
50105;BME280;47690;39.202;-77.198;2023-06-04T13:06:07;100298.41;;;46.24;10.34
50105;BME280;47690;39.202;-77.198;2023-06-04T13:08:51;100305.66;;;45.53;10.61
50105;BME280;47690;39.202;-77.198;2023-06-04T13:11:23;100301.06;;;47.05;10.10
50105;BME280;47690;39.202;-77.198;2023-06-04T13:14:31;100297.72;;;46.44;10.24
50105;BME280;47690;39.202;-77.198;2023-06-04T13:17:22;100292.56;;;46.48;10.04
50105;BME280;47690;39.202;-77.198;2023-06-04T13:19:59;100290.59;;;46.38;10.17
50105;BME280;47690;39.202;-77.198;2023-06-04T13:23:33;100281.25;;;46.67;10.45
50105;BME280;47690;39.202;-77.198;2023-06-04T13:27:50;100278.19;;;46.15;10.29
50105;BME280;47690;39.202;-77.198;2023-06-04T13:30:21;100285.78;;;45.52;11.17
50105;BME280;47690;39.202;-77.198;2023-06-04T13:32:53;100272.16;;;46.07;10.25
50105;BME280;47690;39.202;-77.198;2023-06-04T13:35:23;100267.66;;;45.36;10.89
50105;BME280;47690;39.202;-77.198;2023-06-04T13:37:54;100273.88;;;45.86;10.45
50105;BME280;47690;39.202;-77.198;2023-06-04T13:40:25;100257.97;;;46.05;10.32
50105;BME280;47690;39.202;-77.198;2023-06-04T13:42:55;100263.03;;;45.36;10.54
50105;BME280;47690;39.202;-77.198;2023-06-04T13:45:26;100261.50;;;46.06;10.53
50105;BME280;47690;39.202;-77.198;2023-06-04T13:47:57;100260.81;;;45.83;10.73
50105;BME280;47690;39.202;-77.198;2023-06-04T13:50:33;100260.28;;;47.83;9.33
50105;BME280;47690;39.202;-77.198;2023-06-04T13:53:03;100255.53;;;46.04;9.94
50105;BME280;47690;39.202;-77.198;2023-06-04T13:55:33;100260.72;;;45.45;10.68
50105;BME280;47690;39.202;-77.198;2023-06-04T13:58:05;100256.53;;;46.35;10.69
50105;BME280;47690;39.202;-77.198;2023-06-04T14:00:35;100250.25;;;46.30;10.39
50105;BME280;47690;39.202;-77.198;2023-06-04T14:03:06;100242.38;;;46.33;10.39
50105;BME280;47690;39.202;-77.198;2023-06-04T14:05:36;100242.38;;;46.33;10.29
50105;BME280;47690;39.202;-77.198;2023-06-04T14:08:06;100251.34;;;46.29;10.17
50105;BME280;47690;39.202;-77.198;2023-06-04T14:10:37;100240.81;;;46.48;10.51
50105;BME280;47690;39.202;-77.198;2023-06-04T14:13:09;100242.28;;;46.66;10.22
50105;BME280;47690;39.202;-77.198;2023-06-04T14:15:41;100232.22;;;46.67;10.00
50105;BME280;47690;39.202;-77.198;2023-06-04T14:18:13;100241.47;;;46.60;10.07
50105;BME280;47690;39.202;-77.198;2023-06-04T14:20:45;100237.91;;;46.60;9.99
50105;BME280;47690;39.202;-77.198;2023-06-04T14:23:18;100243.19;;;46.29;10.64
50105;BME280;47690;39.202;-77.198;2023-06-04T14:25:49;100235.28;;;46.86;9.98
50105;BME280;47690;39.202;-77.198;2023-06-04T14:28:19;100241.56;;;46.81;10.25
50105;BME280;47690;39.202;-77.198;2023-06-04T14:30:49;100239.94;;;45.94;10.70
50105;BME280;47690;39.202;-77.198;2023-06-04T14:33:18;100239.38;;;46.83;10.45
50105;BME280;47690;39.202;-77.198;2023-06-04T14:35:47;100237.22;;;45.99;10.71
50105;BME280;47690;39.202;-77.198;2023-06-04T14:38:18;100240.25;;;46.41;10.53
50105;BME280;47690;39.202;-77.198;2023-06-04T14:40:49;100239.47;;;47.04;10.19